Time;durP1;ratioP1;P1;durP2;ratioP2;P2;SDS_P1;SDS_P2;PMS_P1;PMS_P2;Temp;Humidity;BMP_temperature;BMP_pressure;BME280_temperature;BME280_humidity;BME280_pressure;Samples;Min_cycle;Max_cycle;Signal;HPM_P1;HPM_P2
2022/06/01 00:00:29;;;;;;;13.00;7.40;;;;;;;-145.69;100.00;71722.78;5075112;28;20233;-86
2022/06/01 00:02:58;;;;;;;12.33;7.17;;;;;;;-145.69;100.00;71736.72;5075114;28;20210;-85
2022/06/01 00:05:25;;;;;;;10.83;7.30;;;;;;;-145.69;100.00;71736.72;5074573;28;20202;-84
2022/06/01 00:07:52;;;;;;;19.03;8.10;;;;;;;-145.69;100.00;71728.75;5074544;28;20206;-85
2022/06/01 00:10:23;;;;;;;14.07;7.40;;;;;;;-145.69;100.00;71734.72;5074805;28;20194;-84
2022/06/01 00:12:54;;;;;;;13.97;7.47;;;;;;;-145.69;100.00;71740.69;5075116;28;20592;-85
2022/06/01 00:15:24;;;;;;;13.83;6.80;;;;;;;-145.69;100.00;71748.66;5074924;28;20203;-86
2022/06/01 00:17:56;;;;;;;11.73;7.03;;;;;;;-145.69;100.00;71750.63;5075019;28;20552;-86
2022/06/01 00:20:22;;;;;;;13.53;7.30;;;;;;;-145.69;100.00;71760.59;5074399;28;20209;-85
2022/06/01 00:22:51;;;;;;;12.33;7.60;;;;;;;-145.69;100.00;71748.66;5074502;28;20199;-86
2022/06/01 00:25:18;;;;;;;15.63;8.80;;;;;;;-145.69;100.00;71760.59;5074401;28;20790;-85
2022/06/01 00:27:45;;;;;;;14.00;7.30;;;;;;;-145.69;100.00;71760.59;5074531;28;20234;-85
2022/06/01 00:30:15;;;;;;;16.27;8.00;;;;;;;-145.69;100.00;71760.59;5074434;28;20203;-85
2022/06/01 00:32:45;;;;;;;12.83;7.87;;;;;;;-145.69;100.00;71740.69;5074451;28;20757;-85
2022/06/01 00:35:14;;;;;;;16.63;10.70;;;;;;;-145.69;100.00;71748.66;5070849;28;20446;-85
2022/06/01 00:37:41;;;;;;;14.13;8.10;;;;;;;-145.69;100.00;71752.63;5074597;28;20653;-86
2022/06/01 00:40:16;;;;;;;12.77;7.37;;;;;;;-145.69;100.00;71748.66;5074407;28;20691;-86
2022/06/01 00:42:46;;;;;;;13.40;7.80;;;;;;;-145.69;100.00;71748.66;5074079;28;20200;-85
2022/06/01 00:45:24;;;;;;;13.33;7.30;;;;;;;-145.69;100.00;71752.63;5074178;28;20195;-87
2022/06/01 00:47:51;;;;;;;14.97;7.03;;;;;;;-145.69;100.00;71756.59;5075034;28;20576;-86
2022/06/01 00:50:28;;;;;;;12.07;7.37;;;;;;;-145.69;100.00;71746.66;5075508;28;20202;-86
2022/06/01 00:52:58;;;;;;;12.57;7.27;;;;;;;-145.69;100.00;71746.66;5076424;28;20232;-85
2022/06/01 00:55:31;;;;;;;13.90;7.13;;;;;;;-145.69;100.00;71752.63;5079031;28;20224;-87
2022/06/01 00:58:04;;;;;;;13.13;7.40;;;;;;;-145.69;100.00;71764.56;5091864;28;20202;-86
2022/06/01 01:00:33;;;;;;;13.80;7.80;;;;;;;-145.69;100.00;71756.59;5091332;28;20191;-86
2022/06/01 01:03:10;;;;;;;11.77;7.63;;;;;;;-145.69;100.00;71764.56;5089945;28;20241;-86
2022/06/01 01:05:40;;;;;;;11.93;6.57;;;;;;;-145.69;100.00;71772.53;5087001;28;20202;-85
2022/06/01 01:08:13;;;;;;;12.37;6.97;;;;;;;-145.69;100.00;71780.50;5079560;28;20661;-84
2022/06/01 01:10:41;;;;;;;13.57;7.30;;;;;;;-145.69;100.00;71776.50;5078566;28;20207;-86
2022/06/01 01:13:15;;;;;;;12.53;6.70;;;;;;;-145.69;100.00;71780.50;5074890;28;20221;-85
2022/06/01 01:15:52;;;;;;;11.40;7.17;;;;;;;-145.69;100.00;71780.50;5076025;28;20198;-85
2022/06/01 01:18:29;;;;;;;11.57;7.50;;;;;;;-145.69;100.00;71768.53;5074838;28;20525;-85
2022/06/01 01:21:05;;;;;;;15.83;7.53;;;;;;;-145.69;100.00;71768.53;5073811;28;20230;-85
2022/06/01 01:23:40;;;;;;;13.87;7.20;;;;;;;-145.69;100.00;71780.50;5075109;28;20206;-85
2022/06/01 01:26:10;;;;;;;12.87;7.60;;;;;;;-145.69;100.00;71788.44;5078124;28;20217;-85
2022/06/01 01:28:38;;;;;;;13.30;6.97;;;;;;;-145.69;100.00;71798.41;5075914;28;20199;-85
2022/06/01 01:31:08;;;;;;;12.03;6.90;;;;;;;-145.69;100.00;71804.38;5074720;28;20217;-85
2022/06/01 01:33:35;;;;;;;24.40;7.57;;;;;;;-145.69;100.00;71816.31;5078534;28;20207;-85
2022/06/01 01:36:05;;;;;;;14.83;7.30;;;;;;;-145.69;100.00;71808.34;5078956;28;20198;-85
2022/06/01 01:38:41;;;;;;;16.37;8.70;;;;;;;-145.69;100.00;71806.34;5077056;28;20195;-84
2022/06/01 01:41:13;;;;;;;15.20;7.57;;;;;;;-145.69;100.00;71812.31;5075991;28;20585;-83
2022/06/01 01:43:52;;;;;;;12.43;7.53;;;;;;;-145.69;100.00;71822.28;5074285;28;20454;-84
2022/06/01 01:46:19;;;;;;;11.63;6.90;;;;;;;-145.69;100.00;71836.22;5074797;28;20197;-84
2022/06/01 01:48:49;;;;;;;14.87;8.23;;;;;;;-145.69;100.00;71822.28;5075857;28;20209;-84
2022/06/01 01:51:21;;;;;;;14.93;8.90;;;;;;;-145.69;100.00;71816.31;5074097;28;20206;-84
2022/06/01 01:53:47;;;;;;;15.30;8.60;;;;;;;-145.69;100.00;71814.31;5073678;28;20203;-85
2022/06/01 01:56:25;;;;;;;15.80;9.13;;;;;;;-145.69;100.00;71810.34;5073692;28;20210;-85
2022/06/01 01:59:03;;;;;;;13.17;8.50;;;;;;;-145.69;100.00;71806.34;5073844;28;20641;-85
2022/06/01 02:01:40;;;;;;;16.13;8.57;;;;;;;-145.69;100.00;71808.34;5072456;28;20222;-85
2022/06/01 02:06:04;;;;;;;12.00;7.83;;;;;;;-145.69;100.00;71818.31;5073280;28;20202;-84
2022/06/01 02:07:10;;;;;;;16.53;7.60;;;;;;;-145.69;100.00;71824.25;5074086;28;20268;-83
2022/06/01 02:15:04;;;;;;;14.83;8.37;;;;;;;-145.69;100.00;71818.31;5073144;28;20286;-85
2022/06/01 02:17:40;;;;;;;17.67;9.03;;;;;;;-145.69;100.00;71828.25;5073320;28;20230;-84
2022/06/01 02:20:10;;;;;;;17.60;9.13;;;;;;;-145.69;100.00;71814.31;5073228;28;20198;-85
2022/06/01 02:22:38;;;;;;;17.17;8.53;;;;;;;-145.69;100.00;71812.31;5072865;28;20783;-86
2022/06/01 02:25:06;;;;;;;16.30;9.27;;;;;;;-145.69;100.00;71812.31;5072837;28;20256;-86
2022/06/01 02:27:37;;;;;;;19.17;8.50;;;;;;;-145.69;100.00;71824.25;5072579;28;20223;-85
2022/06/01 02:30:09;;;;;;;18.47;9.10;;;;;;;-145.69;100.00;71824.25;5072921;28;20638;-86
2022/06/01 02:32:37;;;;;;;14.00;8.30;;;;;;;-145.69;100.00;71824.25;5076287;28;20218;-86
2022/06/01 02:35:07;;;;;;;16.50;8.00;;;;;;;-145.69;100.00;71826.25;5076055;28;20237;-85
2022/06/01 02:37:36;;;;;;;25.90;8.37;;;;;;;-145.69;100.00;71828.25;5058835;28;20227;-86
2022/06/01 02:40:10;;;;;;;20.80;8.03;;;;;;;-145.69;100.00;71840.19;5056458;28;20211;-85
2022/06/01 02:42:50;;;;;;;17.83;8.93;;;;;;;-145.69;100.00;71836.22;5056720;28;20226;-85
2022/06/01 02:45:18;;;;;;;17.60;8.27;;;;;;;-145.69;100.00;71836.22;5071127;28;20198;-84
2022/06/01 02:47:52;;;;;;;13.30;7.93;;;;;;;-145.69;100.00;71850.13;5076758;28;20201;-85
2022/06/01 02:50:22;;;;;;;19.17;9.03;;;;;;;-145.69;100.00;71864.06;5076537;28;20202;-86
2022/06/01 02:52:48;;;;;;;13.87;8.40;;;;;;;-145.69;100.00;71858.09;5076667;28;20565;-85
2022/06/01 02:55:16;;;;;;;17.42;9.30;;;;;;;-145.69;100.00;71862.06;5076342;28;20655;-85
2022/06/01 02:57:45;;;;;;;23.40;8.80;;;;;;;-145.69;100.00;71860.09;5076097;28;20203;-85
2022/06/01 03:00:17;;;;;;;22.63;8.97;;;;;;;-145.69;100.00;71854.13;5076407;28;20645;-86
2022/06/01 03:02:44;;;;;;;28.70;9.80;;;;;;;-145.69;100.00;71848.16;5076493;28;20226;-85
2022/06/01 03:05:11;;;;;;;17.13;9.73;;;;;;;-145.69;100.00;71834.22;5076467;28;20550;-85
2022/06/01 03:07:37;;;;;;;19.40;10.37;;;;;;;-145.69;100.00;71840.19;5076576;28;20199;-85
2022/06/01 03:10:05;;;;;;;16.20;9.80;;;;;;;-145.69;100.00;71840.19;5076078;28;20203;-86
2022/06/01 03:12:31;;;;;;;21.63;9.03;;;;;;;-145.69;100.00;71848.16;5075857;28;20206;-85
2022/06/01 03:14:59;;;;;;;24.43;8.40;;;;;;;-145.69;100.00;71856.09;5074974;28;20203;-85
2022/06/01 03:17:26;;;;;;;18.17;9.30;;;;;;;-145.69;100.00;71866.06;5076419;28;20199;-85
2022/06/01 03:19:52;;;;;;;17.73;8.43;;;;;;;-145.69;100.00;71868.06;5076294;28;20209;-85
2022/06/01 03:22:19;;;;;;;17.43;9.23;;;;;;;-145.69;100.00;71870.03;5075836;28;20226;-85
2022/06/01 03:24:48;;;;;;;16.63;8.97;;;;;;;-145.69;100.00;71864.06;5075997;28;20202;-85
2022/06/01 03:27:14;;;;;;;15.20;8.30;;;;;;;-145.69;100.00;71876.00;5075751;28;20230;-85
2022/06/01 03:29:41;;;;;;;15.47;8.40;;;;;;;-145.69;100.00;71880.00;5075849;28;20214;-86
2022/06/01 03:32:11;;;;;;;19.38;11.07;;;;;;;-145.69;100.00;71878.00;5075122;28;20470;-85
2022/06/01 03:34:37;;;;;;;14.53;8.40;;;;;;;-145.69;100.00;71881.97;5075555;28;20719;-85
2022/06/01 03:37:05;;;;;;;17.53;9.10;;;;;;;-145.69;100.00;71874.03;5075690;28;20231;-86
2022/06/01 03:39:31;;;;;;;14.57;8.33;;;;;;;-145.69;100.00;71883.97;5075492;28;20645;-86
2022/06/01 03:41:59;;;;;;;24.77;9.90;;;;;;;-145.69;100.00;71872.03;5075097;28;20222;-85
2022/06/01 03:47:11;;;;;;;19.83;10.23;;;;;;;-145.69;100.00;71880.00;5075090;28;20284;-85
2022/06/01 03:49:39;;;;;;;12.70;8.30;;;;;;;-145.69;100.00;71893.91;5075600;28;20210;-84
2022/06/01 03:52:07;;;;;;;25.73;8.83;;;;;;;-145.69;100.00;71891.94;5075371;28;20581;-85
2022/06/01 03:54:34;;;;;;;19.00;8.93;;;;;;;-145.69;100.00;71887.94;5075105;28;20199;-85
2022/06/01 03:57:01;;;;;;;16.03;9.83;;;;;;;-145.69;100.00;71864.06;5075488;28;20203;-85
2022/06/01 03:59:28;;;;;;;27.43;11.83;;;;;;;-145.69;100.00;71860.09;5075476;28;20225;-84
2022/06/01 04:01:54;;;;;;;17.17;10.33;;;;;;;-145.69;100.00;71862.06;5075090;28;20222;-85
2022/06/01 04:04:22;;;;;;;18.40;10.07;;;;;;;-145.69;100.00;71866.06;5074910;28;20272;-84
2022/06/01 04:06:49;;;;;;;22.27;11.57;;;;;;;-145.69;100.00;71848.16;5075154;28;20199;-85
2022/06/01 04:09:15;;;;;;;22.00;10.97;;;;;;;-145.69;100.00;71856.09;5074893;28;20212;-85
2022/06/01 04:11:45;;;;;;;16.07;9.90;;;;;;;-145.69;100.00;71864.06;5074934;28;20558;-85
2022/06/01 04:14:11;;;;;;;19.87;9.77;;;;;;;-145.69;100.00;71868.06;5075172;28;20198;-85
2022/06/01 04:16:38;;;;;;;20.67;9.53;;;;;;;-145.69;100.00;71862.06;5074895;28;20248;-85
2022/06/01 04:19:04;;;;;;;18.37;9.83;;;;;;;-145.69;100.00;71846.16;5074525;28;20199;-84
2022/06/01 04:21:39;;;;;;;20.90;10.53;;;;;;;-145.69;100.00;71852.13;5074855;28;20203;-85
2022/06/01 04:24:06;;;;;;;24.20;10.73;;;;;;;-145.69;100.00;71844.16;5074820;28;20549;-85
2022/06/01 04:26:33;;;;;;;20.43;10.47;;;;;;;-145.69;100.00;71848.16;5074472;28;20235;-84
2022/06/01 04:28:59;;;;;;;20.00;10.77;;;;;;;-145.69;100.00;71834.22;5074716;28;20553;-85
2022/06/01 04:31:26;;;;;;;26.77;10.67;;;;;;;-145.69;100.00;71824.25;5074600;28;20209;-85
2022/06/01 04:33:53;;;;;;;25.20;10.83;;;;;;;-145.69;100.00;71824.25;5074614;28;20199;-85
2022/06/01 04:36:20;;;;;;;20.67;11.53;;;;;;;-145.69;100.00;71818.31;5074517;28;20726;-84
2022/06/01 04:38:50;;;;;;;22.90;11.87;;;;;;;-145.69;100.00;71798.41;5074080;28;20199;-86
2022/06/01 04:41:17;;;;;;;25.50;13.00;;;;;;;-145.69;100.00;71784.47;5070017;28;20225;-85
2022/06/01 04:43:45;;;;;;;23.80;12.50;;;;;;;-145.69;100.00;71782.47;5054468;28;20277;-84
2022/06/01 04:46:12;;;;;;;24.80;12.20;;;;;;;-145.69;100.00;71780.50;5054491;28;20196;-85
2022/06/01 04:48:38;;;;;;;22.83;13.60;;;;;;;-145.69;100.00;71758.59;5060395;28;20190;-85
2022/06/01 04:51:07;;;;;;;22.57;12.83;;;;;;;-145.69;100.00;71748.66;5074288;28;20206;-85
2022/06/01 04:53:34;;;;;;;24.43;13.17;;;;;;;-145.69;100.00;71728.75;5073719;28;20199;-85
2022/06/01 04:56:05;;;;;;;28.53;14.30;;;;;;;-145.69;100.00;71712.81;5073964;28;20564;-84
2022/06/01 04:58:31;;;;;;;21.03;12.50;;;;;;;-145.69;100.00;71716.81;5074236;28;20210;-85
2022/06/01 05:01:00;;;;;;;27.37;12.30;;;;;;;-145.69;100.00;71704.88;5074031;28;20203;-85
2022/06/01 05:03:27;;;;;;;23.67;13.60;;;;;;;-145.69;100.00;71688.94;5074051;28;20237;-85
2022/06/01 05:05:53;;;;;;;27.70;14.00;;;;;;;-145.69;100.00;71671.03;5073895;28;20202;-84
2022/06/01 05:08:20;;;;;;;25.10;13.57;;;;;;;-145.69;100.00;71659.09;5074125;28;20568;-85
2022/06/01 05:10:46;;;;;;;23.57;13.23;;;;;;;-145.69;100.00;71643.19;5073971;28;20210;-85
2022/06/01 05:13:18;;;;;;;24.40;13.23;;;;;;;-145.69;100.00;71623.28;5073391;28;20195;-85
2022/06/01 05:15:47;;;;;;;26.00;14.43;;;;;;;-145.69;100.00;71613.31;5073608;28;20195;-85
2022/06/01 05:18:14;;;;;;;26.00;16.02;;;;;;;-145.69;100.00;71601.38;5072599;28;20434;-85
2022/06/01 05:20:40;;;;;;;24.97;12.77;;;;;;;-145.69;100.00;71601.38;5073661;28;20211;-85
2022/06/01 05:23:07;;;;;;;22.10;12.93;;;;;;;-145.69;100.00;71579.50;5073551;28;20241;-85
2022/06/01 05:25:33;;;;;;;22.60;12.63;;;;;;;-145.69;100.00;71567.56;5073398;28;20206;-86
2022/06/01 05:28:00;;;;;;;17.23;10.40;;;;;;;-145.69;100.00;71565.56;5073318;28;20231;-87
2022/06/01 05:30:28;;;;;;;23.87;11.70;;;;;;;-145.69;100.00;71555.63;5073952;28;20203;-86
2022/06/01 05:32:54;;;;;;;20.10;10.63;;;;;;;-145.69;100.00;71543.69;5073297;28;20195;-87
2022/06/01 05:35:21;;;;;;;20.00;11.13;;;;;;;-145.69;100.00;71513.81;5073207;28;20195;-86
2022/06/01 05:37:48;;;;;;;22.27;14.23;;;;;;;-145.69;100.00;71454.13;5073459;28;20585;-86
2022/06/01 05:40:14;;;;;;;22.57;10.33;;;;;;;-145.69;100.00;71414.34;5073590;28;20600;-86
2022/06/01 05:42:41;;;;;;;13.37;6.97;;;;;;;-145.69;100.00;71346.69;5073316;28;20226;-88
2022/06/01 05:45:09;;;;;;;11.32;5.97;;;;;;;-145.69;100.00;71320.81;5073039;28;20209;-86
2022/06/01 05:47:37;;;;;;;7.40;3.88;;;;;;;-145.69;100.00;71310.84;5072973;28;20449;-88
2022/06/01 05:50:08;;;;;;;10.43;4.00;;;;;;;-145.69;100.00;71283.00;5073151;28;20672;-87
2022/06/01 05:52:38;;;;;;;6.68;3.75;;;;;;;-145.69;100.00;71279.03;5073110;28;20199;-88
2022/06/01 05:55:06;;;;;;;8.02;3.95;;;;;;;-145.69;100.00;71131.78;5073224;28;20210;-86
2022/06/01 05:57:33;;;;;;;4.18;2.60;;;;;;;-145.69;100.00;71090.00;5072671;28;20281;-86
2022/06/01 06:00:00;;;;;;;3.60;2.63;;;;;;;-145.69;100.00;71072.09;5072926;28;20296;-88
2022/06/01 06:02:27;;;;;;;3.35;2.33;;;;;;;-145.69;100.00;71026.31;5073113;28;20226;-88
2022/06/01 06:04:55;;;;;;;2.88;1.92;;;;;;;-145.69;100.00;71024.34;5073022;28;20206;-88
2022/06/01 06:07:21;;;;;;;2.25;1.88;;;;;;;-145.69;100.00;70964.66;5072995;28;20670;-88
2022/06/01 06:09:48;;;;;;;4.90;2.47;;;;;;;-145.69;100.00;70831.34;5072655;28;20195;-88
2022/06/01 06:12:14;;;;;;;3.15;1.85;;;;;;;-145.69;100.00;70706.00;5072850;28;20203;-89
2022/06/01 06:14:41;;;;;;;2.67;1.75;;;;;;;-145.69;100.00;70719.94;5072721;28;20599;-87
2022/06/01 06:17:08;;;;;;;1.83;1.30;;;;;;;-145.69;100.00;70658.25;5072779;28;20665;-88
2022/06/01 06:19:37;;;;;;;3.03;1.65;;;;;;;-145.69;100.00;70618.47;5073065;28;20217;-85
2022/06/01 06:22:06;;;;;;;3.10;1.48;;;;;;;-145.69;100.00;70616.47;5072636;28;20588;-85
2022/06/01 06:24:34;;;;;;;5.22;1.85;;;;;;;-145.69;100.00;70628.41;5072850;28;20238;-86
2022/06/01 06:27:00;;;;;;;2.50;1.25;;;;;;;-145.69;100.00;70618.47;5072484;28;20230;-85
2022/06/01 06:29:27;;;;;;;1.80;1.42;;;;;;;-145.69;100.00;70692.06;5072930;28;20281;-85
2022/06/01 06:31:53;;;;;;;2.70;1.30;;;;;;;-145.69;100.00;70723.91;5072366;28;20206;-85
2022/06/01 06:34:20;;;;;;;5.25;1.60;;;;;;;-145.69;94.43;70787.56;5072816;28;20199;-85
2022/06/01 06:36:46;;;;;;;2.35;1.20;;;;;;;-145.69;100.00;70755.75;5072783;28;20199;-86
2022/06/01 06:39:17;;;;;;;3.50;1.40;;;;;;;-145.69;100.00;70733.84;5060175;28;20199;-85
2022/06/01 06:41:45;;;;;;;3.17;0.98;;;;;;;-145.69;94.12;70735.84;5052574;28;20200;-84
2022/06/01 06:44:15;;;;;;;2.75;1.35;;;;;;;-145.69;91.56;70805.47;5055227;28;20222;-83
2022/06/01 06:46:41;;;;;;;3.35;1.20;;;;;;;-145.69;89.72;70837.31;5072279;28;20604;-82
2022/06/01 06:49:09;;;;;;;2.33;1.20;;;;;;;-145.69;94.23;70813.44;5072619;28;20202;-83
2022/06/01 06:51:38;;;;;;;1.73;1.10;;;;;;;-145.69;71.92;70908.94;5072325;28;20199;-84
2022/06/01 06:54:05;;;;;;;1.67;1.30;;;;;;;-145.69;83.70;70881.09;5072348;28;20299;-86
2022/06/01 06:56:33;;;;;;;2.85;1.30;;;;;;;-145.69;72.51;70845.28;5072550;28;20194;-85
2022/06/01 06:59:00;;;;;;;2.05;1.10;;;;;;;-145.69;78.72;70773.66;5072504;28;20210;-84
2022/06/01 07:01:33;;;;;;;4.60;1.40;;;;;;;-145.69;76.00;70881.09;5071729;28;20195;-85
2022/06/01 07:03:59;;;;;;;8.48;1.98;;;;;;;-145.69;78.89;70869.16;5072260;28;20642;-84
2022/06/01 07:06:27;;;;;;;4.72;1.35;;;;;;;-145.69;78.47;70853.22;5072293;28;20218;-84
2022/06/01 07:08:57;;;;;;;3.05;1.23;;;;;;;-145.69;75.82;70823.38;5072043;28;20211;-84
2022/06/01 07:11:26;;;;;;;6.00;1.50;;;;;;;-145.69;70.02;70871.13;5072369;28;20226;-84
2022/06/01 07:13:54;;;;;;;4.20;1.38;;;;;;;-145.69;77.90;70855.22;5072111;28;20202;-83
2022/06/01 07:16:28;;;;;;;6.63;1.33;;;;;;;-145.69;68.69;70853.22;5072310;28;20199;-84
2022/06/01 07:18:58;;;;;;;2.75;1.02;;;;;;;-145.69;60.66;70865.16;5075622;28;20256;-84
2022/06/01 07:21:25;;;;;;;2.95;0.90;;;;;;;-145.69;60.39;70857.22;5076056;28;20228;-84
2022/06/01 07:23:52;;;;;;;1.35;0.75;;;;;;;-145.69;61.35;70857.22;5075715;28;20234;-87
2022/06/01 07:26:24;;;;;;;1.67;1.10;;;;;;;-145.69;59.46;70857.22;5075472;28;20711;-83
2022/06/01 07:28:51;;;;;;;1.48;0.90;;;;;;;-145.69;58.43;70851.25;5075634;28;20199;-83
2022/06/01 07:31:22;;;;;;;6.32;1.00;;;;;;;-145.69;52.76;70855.22;5075374;28;20214;-84
2022/06/01 07:33:51;;;;;;;3.22;1.00;;;;;;;-145.69;57.82;70849.25;5075153;28;20480;-85
2022/06/01 07:36:18;;;;;;;4.90;1.35;;;;;;;-145.69;56.12;70837.31;5075479;28;20298;-82
2022/06/01 07:44:20;;;;;;;1.85;0.90;;;;;;;-145.69;53.04;70809.47;5075420;28;20750;-83
2022/06/01 07:46:49;;;;;;;2.75;1.10;;;;;;;-145.69;50.25;70789.56;5075396;28;20669;-85
2022/06/01 07:49:16;;;;;;;2.45;0.85;;;;;;;-145.69;51.42;70793.53;5075022;28;20194;-82
2022/06/01 07:51:45;;;;;;;2.05;1.00;;;;;;;-145.69;51.89;70779.63;5075196;28;20199;-82
2022/06/01 07:54:12;;;;;;;4.05;0.90;;;;;;;-145.69;47.88;70801.50;5075223;28;20205;-82
2022/06/01 07:56:38;;;;;;;2.70;1.00;;;;;;;-145.69;46.54;70803.50;5075216;28;20213;-85
2022/06/01 07:59:06;;;;;;;3.75;0.90;;;;;;;-145.69;50.70;70763.69;5075435;28;20203;-82
2022/06/01 08:01:32;;;;;;;1.33;1.10;;;;;;;-145.69;46.87;70789.56;5077303;28;20194;-84
2022/06/01 08:04:03;;;;;;;2.53;1.00;;;;;;;-145.69;48.33;70801.50;5072307;28;20230;-82
2022/06/01 08:06:31;;;;;;;2.53;1.10;;;;;;;-145.69;56.20;70783.59;5075093;28;20252;-80
2022/06/01 08:08:57;;;;;;;2.40;1.00;;;;;;;-145.69;53.71;70763.69;5073837;28;20442;-80
2022/06/01 08:13:06;;;;;;;1.33;0.82;;;;;;;-145.69;49.66;70779.63;5075103;28;20234;-81
2022/06/01 08:14:13;;;;;;;1.35;1.00;;;;;;;-145.69;46.96;70771.66;5075270;28;20273;-82
2022/06/01 08:16:40;;;;;;;1.58;1.00;;;;;;;-145.69;50.03;70751.75;5075217;28;20206;-83
2022/06/01 08:19:08;;;;;;;1.05;0.90;;;;;;;-145.69;49.70;70737.84;5076114;28;20202;-81
2022/06/01 08:21:36;;;;;;;2.33;1.42;;;;;;;-145.69;50.01;70700.03;5075949;28;20211;-80
2022/06/01 08:24:03;;;;;;;2.08;1.00;;;;;;;-145.69;53.71;70618.47;5074600;28;20240;-80
2022/06/01 08:26:33;;;;;;;1.98;1.10;;;;;;;-145.69;48.42;70576.69;5076386;28;20245;-85
2022/06/01 08:28:59;;;;;;;1.55;1.10;;;;;;;-145.69;47.96;70604.53;5076725;28;20198;-80
2022/06/01 08:31:29;;;;;;;1.17;0.90;;;;;;;-145.69;50.76;70566.75;5074594;28;20661;-83
2022/06/01 08:33:56;;;;;;;3.13;1.00;;;;;;;-145.69;50.08;70640.34;5074464;28;20205;-81
2022/06/01 08:36:24;;;;;;;2.30;0.90;;;;;;;-145.69;51.65;70654.28;5074203;28;20198;-81
2022/06/01 08:38:51;;;;;;;3.92;1.00;;;;;;;-145.69;48.17;70650.28;5074535;28;20206;-80
2022/06/01 08:41:22;;;;;;;3.35;1.23;;;;;;;-145.69;49.80;70626.41;5074574;28;20249;-81
2022/06/01 08:43:53;;;;;;;2.50;1.13;;;;;;;-145.69;52.08;70578.69;5074264;28;20701;-82
2022/06/01 08:46:21;;;;;;;1.45;1.08;;;;;;;-145.69;46.48;70630.41;5069912;28;20199;-82
2022/06/01 08:48:51;;;;;;;1.85;1.13;;;;;;;-145.69;47.12;70638.34;5058589;28;20218;-80
2022/06/01 08:51:19;;;;;;;1.33;1.00;;;;;;;-145.69;51.93;70670.19;5074401;28;20194;-82
2022/06/01 08:53:47;;;;;;;2.33;1.08;;;;;;;-145.69;45.05;70680.13;5074078;28;20222;-81
2022/06/01 08:56:19;;;;;;;3.38;1.40;;;;;;;-145.69;48.24;70656.25;5074277;28;20199;-81
2022/06/01 08:58:54;;;;;;;1.58;0.95;;;;;;;-145.69;48.74;70626.41;5074093;28;20199;-81
2022/06/01 09:01:28;;;;;;;2.90;1.08;;;;;;;-145.69;49.10;70614.47;5073628;28;20538;-81
2022/06/01 09:04:08;;;;;;;1.98;1.20;;;;;;;-145.69;47.31;70630.41;5073503;28;20238;-80
2022/06/01 09:06:37;;;;;;;2.55;1.13;;;;;;;-145.69;48.60;70610.50;5073968;28;20202;-80
2022/06/01 09:09:10;;;;;;;3.08;1.08;;;;;;;-145.69;47.49;70574.69;5073871;28;20206;-81
2022/06/01 09:11:38;;;;;;;3.25;1.30;;;;;;;-145.69;48.33;70528.94;5073747;28;20202;-81
2022/06/01 09:14:10;;;;;;;1.52;1.20;;;;;;;-145.69;50.31;70467.28;5073644;28;20199;-80
2022/06/01 09:16:41;;;;;;;4.18;1.23;;;;;;;-145.69;47.38;70511.03;5073875;28;20198;-80
2022/06/01 09:19:11;;;;;;;3.17;1.00;;;;;;;-145.69;46.12;70590.63;5073516;28;20226;-81
2022/06/01 09:24:28;;;;;;;3.03;1.10;;;;;;;-145.69;49.74;70610.50;5073189;28;20576;-81
2022/06/01 09:26:58;;;;;;;3.80;1.40;;;;;;;-145.69;46.64;70684.13;5073422;28;20322;-82
2022/06/01 09:29:32;;;;;;;1.60;1.20;;;;;;;-145.69;48.81;70664.22;5073556;28;20237;-82
2022/06/01 09:32:02;;;;;;;1.98;0.98;;;;;;;-145.69;45.80;70666.22;5073805;28;20198;-81
2022/06/01 09:34:36;;;;;;;1.05;0.82;;;;;;;-145.69;51.76;70630.41;5073504;28;20206;-82
2022/06/01 09:37:10;;;;;;;4.93;1.25;;;;;;;-145.69;46.30;70606.53;5073245;28;20201;-81
2022/06/01 09:39:48;;;;;;;4.60;0.95;;;;;;;-145.69;45.50;70550.81;5073163;28;20203;-82
2022/06/01 09:42:25;;;;;;;2.13;1.00;;;;;;;-145.69;43.52;70536.91;5073199;28;20205;-83
2022/06/01 09:44:55;;;;;;;2.80;1.05;;;;;;;-145.69;42.13;70560.78;5073007;28;20237;-84
2022/06/01 09:47:40;;;;;;;1.88;0.95;;;;;;;-145.69;42.59;70562.75;5073419;28;20209;-81
2022/06/01 09:50:22;;;;;;;4.30;1.00;;;;;;;-145.69;45.37;70507.06;5073041;28;20205;-80
2022/06/01 09:52:50;;;;;;;4.03;0.88;;;;;;;-145.69;42.61;70481.19;5073040;28;20669;-81
2022/06/01 09:55:25;;;;;;;1.60;0.80;;;;;;;-145.69;40.65;70499.09;5072846;28;20442;-82
2022/06/01 09:58:07;;;;;;;1.17;0.90;;;;;;;-145.69;40.15;70524.97;5073374;28;20259;-82
2022/06/01 10:06:16;;;;;;;0.98;0.88;;;;;;;-145.69;39.95;70507.06;5073197;28;20664;-85
2022/06/01 10:08:55;;;;;;;1.33;0.98;;;;;;;-145.69;39.39;70507.06;5072801;28;20206;-86
2022/06/01 10:11:40;;;;;;;2.20;0.98;;;;;;;-145.69;42.95;70475.22;5072988;28;20289;-85
2022/06/01 10:14:18;;;;;;;2.67;1.02;;;;;;;-145.69;40.47;70483.19;5072373;28;20553;-80
2022/06/01 10:16:53;;;;;;;1.48;1.00;;;;;;;-145.69;38.98;70469.25;5072678;28;20202;-80
2022/06/01 10:19:26;;;;;;;1.10;0.73;;;;;;;-145.69;45.25;70495.13;5073167;28;20668;-81
2022/06/01 10:21:58;;;;;;;2.80;1.08;;;;;;;-145.69;41.79;70524.97;5072676;28;20565;-79
2022/06/01 10:24:29;;;;;;;2.45;1.00;;;;;;;-145.69;43.20;70431.47;5072450;28;20230;-82
2022/06/01 10:26:59;;;;;;;2.22;1.02;;;;;;;-145.69;44.18;70379.72;5072507;28;20575;-81
2022/06/01 10:29:30;;;;;;;1.45;0.80;;;;;;;-145.69;42.65;70341.94;5072927;28;20210;-81
2022/06/01 10:32:01;;;;;;;1.75;0.80;;;;;;;-145.69;40.48;70411.56;5072888;28;20228;-80
2022/06/01 10:34:35;;;;;;;2.13;0.80;;;;;;;-145.69;41.74;70401.63;5072721;28;20198;-82
2022/06/01 10:37:10;;;;;;;3.00;1.02;;;;;;;-145.69;44.94;70308.13;5072497;28;20203;-84
2022/06/01 10:39:41;;;;;;;1.52;0.90;;;;;;;-145.69;40.47;70475.22;5072439;28;20198;-83
2022/06/01 10:42:16;;;;;;;2.72;0.80;;;;;;;-145.69;43.35;70465.28;5072820;28;20202;-83
2022/06/01 10:44:47;;;;;;;2.35;1.02;;;;;;;-145.69;41.38;70367.81;5072546;28;20226;-85
2022/06/01 10:47:17;;;;;;;0.85;0.70;;;;;;;-145.69;38.06;70395.66;5057255;28;20211;-83
2022/06/01 10:49:51;;;;;;;1.30;1.00;;;;;;;-145.69;40.83;70379.72;5053482;28;20196;-84
2022/06/01 10:52:25;;;;;;;1.70;1.00;;;;;;;-145.69;40.58;70369.78;5073630;28;20565;-84
2022/06/01 10:55:03;;;;;;;2.03;0.93;;;;;;;-145.69;40.75;70403.59;5076417;28;20568;-82
2022/06/01 10:57:32;;;;;;;1.83;1.00;;;;;;;-145.69;39.59;70377.75;5077040;28;20216;-84
2022/06/01 10:59:59;;;;;;;1.58;0.90;;;;;;;-145.69;41.04;70387.69;5076690;28;20206;-83
2022/06/01 11:02:45;;;;;;;1.77;0.80;;;;;;;-145.69;38.37;70467.28;5076389;28;20195;-81
2022/06/01 11:05:25;;;;;;;1.20;0.70;;;;;;;-145.69;40.50;70544.84;5076414;28;20226;-82
2022/06/01 11:08:07;;;;;;;2.20;0.77;;;;;;;-145.69;40.54;70499.09;5076514;28;20202;-82
2022/06/01 11:10:43;;;;;;;1.88;0.98;;;;;;;-145.69;40.44;70495.13;5076354;28;20657;-84
2022/06/01 11:13:25;;;;;;;1.77;1.02;;;;;;;-145.69;40.25;70526.94;5076210;28;20653;-86
2022/06/01 11:16:03;;;;;;;2.10;1.42;;;;;;;-145.69;41.58;70473.22;5074379;28;20703;-86
2022/06/01 11:18:43;;;;;;;2.90;1.05;;;;;;;-145.69;40.65;70465.28;5076369;28;20199;-83
2022/06/01 11:21:25;;;;;;;1.40;0.90;;;;;;;-145.69;40.50;70447.38;5076066;28;20214;-86
2022/06/01 11:24:09;;;;;;;2.63;0.82;;;;;;;-145.69;41.71;70526.94;5075545;28;20225;-84
2022/06/01 11:26:50;;;;;;;1.33;0.95;;;;;;;-145.69;41.31;70491.13;5075909;28;20589;-84
2022/06/01 11:29:42;;;;;;;2.05;0.90;;;;;;;-145.69;40.44;70491.13;5075773;28;20682;-83
2022/06/01 11:32:16;;;;;;;1.90;0.73;;;;;;;-145.69;40.13;70475.22;5075729;28;20195;-86
2022/06/01 11:34:50;;;;;;;1.70;1.08;;;;;;;-145.69;40.08;70441.41;5076055;28;20198;-84
2022/06/01 11:37:21;;;;;;;3.28;1.00;;;;;;;-145.69;39.88;70515.00;5075322;28;20249;-84
2022/06/01 11:39:54;;;;;;;1.35;0.80;;;;;;;-145.69;44.84;70528.94;5075809;28;20207;-82
2022/06/01 11:42:25;;;;;;;1.42;0.85;;;;;;;-145.69;41.74;70513.03;5075624;28;20205;-84